sensor_id;sensor_type;location;lat;lon;timestamp;P1;durP1;ratioP1;P2;durP2;ratioP2
84956;SDS011;75252;45.438;-73.814;2024-03-25T00:01:25;3.10;;;1.88;;
84956;SDS011;75252;45.438;-73.814;2024-03-25T00:03:51;2.55;;;1.80;;
84956;SDS011;75252;45.438;-73.814;2024-03-25T00:06:17;3.40;;;2.20;;
84956;SDS011;75252;45.438;-73.814;2024-03-25T00:08:43;2.75;;;2.08;;
84956;SDS011;75252;45.438;-73.814;2024-03-25T00:11:09;2.72;;;2.00;;
84956;SDS011;75252;45.438;-73.814;2024-03-25T00:13:34;2.38;;;2.08;;
84956;SDS011;75252;45.438;-73.814;2024-03-25T00:16:00;3.20;;;2.00;;
84956;SDS011;75252;45.438;-73.814;2024-03-25T00:18:26;3.30;;;2.10;;
84956;SDS011;75252;45.438;-73.814;2024-03-25T00:20:52;3.72;;;2.60;;
84956;SDS011;75252;45.438;-73.814;2024-03-25T00:23:18;3.40;;;2.10;;
84956;SDS011;75252;45.438;-73.814;2024-03-25T00:25:44;3.15;;;2.20;;
84956;SDS011;75252;45.438;-73.814;2024-03-25T00:28:10;2.53;;;2.00;;
84956;SDS011;75252;45.438;-73.814;2024-03-25T00:30:36;2.35;;;2.00;;
84956;SDS011;75252;45.438;-73.814;2024-03-25T00:33:02;3.13;;;2.80;;
84956;SDS011;75252;45.438;-73.814;2024-03-25T00:35:28;2.65;;;2.13;;
84956;SDS011;75252;45.438;-73.814;2024-03-25T00:37:53;2.85;;;2.20;;
84956;SDS011;75252;45.438;-73.814;2024-03-25T00:40:22;3.42;;;2.33;;
84956;SDS011;75252;45.438;-73.814;2024-03-25T00:42:48;2.70;;;2.40;;
84956;SDS011;75252;45.438;-73.814;2024-03-25T00:45:17;3.75;;;2.22;;
84956;SDS011;75252;45.438;-73.814;2024-03-25T00:47:43;2.60;;;1.85;;
84956;SDS011;75252;45.438;-73.814;2024-03-25T00:50:09;2.70;;;2.10;;
84956;SDS011;75252;45.438;-73.814;2024-03-25T00:52:37;3.65;;;2.50;;
84956;SDS011;75252;45.438;-73.814;2024-03-25T00:55:03;2.25;;;2.05;;
84956;SDS011;75252;45.438;-73.814;2024-03-25T00:57:29;2.97;;;1.98;;
84956;SDS011;75252;45.438;-73.814;2024-03-25T00:59:56;2.25;;;2.00;;
84956;SDS011;75252;45.438;-73.814;2024-03-25T01:02:21;2.22;;;2.03;;
84956;SDS011;75252;45.438;-73.814;2024-03-25T01:04:47;4.30;;;2.00;;
84956;SDS011;75252;45.438;-73.814;2024-03-25T01:07:13;2.53;;;1.83;;
84956;SDS011;75252;45.438;-73.814;2024-03-25T01:09:39;2.75;;;1.90;;
84956;SDS011;75252;45.438;-73.814;2024-03-25T01:12:05;2.83;;;2.05;;
84956;SDS011;75252;45.438;-73.814;2024-03-25T01:14:31;2.90;;;2.33;;
84956;SDS011;75252;45.438;-73.814;2024-03-25T01:16:57;2.78;;;2.17;;
84956;SDS011;75252;45.438;-73.814;2024-03-25T01:19:23;3.47;;;2.10;;
84956;SDS011;75252;45.438;-73.814;2024-03-25T01:21:48;3.42;;;2.30;;
84956;SDS011;75252;45.438;-73.814;2024-03-25T01:24:15;3.45;;;1.90;;
84956;SDS011;75252;45.438;-73.814;2024-03-25T01:26:41;3.30;;;1.85;;
84956;SDS011;75252;45.438;-73.814;2024-03-25T01:29:07;3.75;;;2.13;;
84956;SDS011;75252;45.438;-73.814;2024-03-25T01:31:33;2.53;;;1.70;;
84956;SDS011;75252;45.438;-73.814;2024-03-25T01:33:59;2.25;;;1.80;;
84956;SDS011;75252;45.438;-73.814;2024-03-25T01:36:25;3.05;;;2.63;;
84956;SDS011;75252;45.438;-73.814;2024-03-25T01:38:52;5.35;;;1.95;;
84956;SDS011;75252;45.438;-73.814;2024-03-25T01:41:20;2.85;;;1.90;;
84956;SDS011;75252;45.438;-73.814;2024-03-25T01:43:49;2.65;;;2.45;;
84956;SDS011;75252;45.438;-73.814;2024-03-25T01:46:19;3.58;;;2.00;;
84956;SDS011;75252;45.438;-73.814;2024-03-25T01:48:46;5.68;;;2.25;;
84956;SDS011;75252;45.438;-73.814;2024-03-25T01:51:14;2.75;;;1.85;;
84956;SDS011;75252;45.438;-73.814;2024-03-25T01:53:43;1.92;;;1.65;;
84956;SDS011;75252;45.438;-73.814;2024-03-25T01:56:10;2.97;;;2.25;;
84956;SDS011;75252;45.438;-73.814;2024-03-25T01:58:37;3.47;;;1.98;;
84956;SDS011;75252;45.438;-73.814;2024-03-25T02:01:03;2.40;;;2.00;;
84956;SDS011;75252;45.438;-73.814;2024-03-25T02:03:30;3.60;;;1.88;;
84956;SDS011;75252;45.438;-73.814;2024-03-25T02:06:00;2.42;;;2.05;;
84956;SDS011;75252;45.438;-73.814;2024-03-25T02:08:29;2.40;;;2.13;;
84956;SDS011;75252;45.438;-73.814;2024-03-25T02:10:56;2.63;;;2.00;;
84956;SDS011;75252;45.438;-73.814;2024-03-25T02:13:23;3.35;;;2.08;;
84956;SDS011;75252;45.438;-73.814;2024-03-25T02:15:50;4.60;;;2.45;;
84956;SDS011;75252;45.438;-73.814;2024-03-25T02:18:17;4.38;;;2.67;;
84956;SDS011;75252;45.438;-73.814;2024-03-25T02:20:43;2.90;;;2.28;;
84956;SDS011;75252;45.438;-73.814;2024-03-25T02:23:10;3.58;;;2.10;;
84956;SDS011;75252;45.438;-73.814;2024-03-25T02:25:37;3.00;;;2.25;;
84956;SDS011;75252;45.438;-73.814;2024-03-25T02:28:05;2.83;;;2.10;;
84956;SDS011;75252;45.438;-73.814;2024-03-25T02:30:31;2.97;;;2.20;;
84956;SDS011;75252;45.438;-73.814;2024-03-25T02:32:57;3.25;;;2.22;;
84956;SDS011;75252;45.438;-73.814;2024-03-25T02:35:23;2.70;;;2.00;;
84956;SDS011;75252;45.438;-73.814;2024-03-25T02:37:51;2.45;;;1.80;;
84956;SDS011;75252;45.438;-73.814;2024-03-25T02:40:18;3.47;;;2.30;;
84956;SDS011;75252;45.438;-73.814;2024-03-25T02:42:44;4.07;;;2.28;;
84956;SDS011;75252;45.438;-73.814;2024-03-25T02:45:11;2.30;;;1.90;;
84956;SDS011;75252;45.438;-73.814;2024-03-25T02:47:37;2.60;;;1.75;;
84956;SDS011;75252;45.438;-73.814;2024-03-25T02:50:06;3.42;;;2.10;;
84956;SDS011;75252;45.438;-73.814;2024-03-25T02:52:32;2.88;;;1.90;;
84956;SDS011;75252;45.438;-73.814;2024-03-25T02:54:58;2.63;;;2.10;;
84956;SDS011;75252;45.438;-73.814;2024-03-25T02:57:23;3.95;;;2.30;;
84956;SDS011;75252;45.438;-73.814;2024-03-25T02:59:49;3.22;;;2.60;;
84956;SDS011;75252;45.438;-73.814;2024-03-25T03:02:15;2.38;;;1.73;;
84956;SDS011;75252;45.438;-73.814;2024-03-25T03:04:41;2.88;;;2.03;;
84956;SDS011;75252;45.438;-73.814;2024-03-25T03:07:07;1.90;;;1.67;;
84956;SDS011;75252;45.438;-73.814;2024-03-25T03:09:33;2.88;;;2.40;;
84956;SDS011;75252;45.438;-73.814;2024-03-25T03:11:59;2.35;;;1.80;;
84956;SDS011;75252;45.438;-73.814;2024-03-25T03:14:25;3.80;;;1.88;;
84956;SDS011;75252;45.438;-73.814;2024-03-25T03:16:51;5.20;;;3.75;;
84956;SDS011;75252;45.438;-73.814;2024-03-25T03:19:24;2.10;;;1.90;;
84956;SDS011;75252;45.438;-73.814;2024-03-25T03:21:51;3.03;;;1.85;;
84956;SDS011;75252;45.438;-73.814;2024-03-25T03:24:19;2.75;;;2.10;;
84956;SDS011;75252;45.438;-73.814;2024-03-25T03:26:45;3.22;;;2.13;;
84956;SDS011;75252;45.438;-73.814;2024-03-25T03:29:11;4.57;;;3.15;;
84956;SDS011;75252;45.438;-73.814;2024-03-25T03:31:37;4.57;;;3.28;;
84956;SDS011;75252;45.438;-73.814;2024-03-25T03:34:06;5.00;;;3.65;;
84956;SDS011;75252;45.438;-73.814;2024-03-25T03:36:32;4.95;;;2.90;;
84956;SDS011;75252;45.438;-73.814;2024-03-25T03:38:57;3.63;;;2.70;;
84956;SDS011;75252;45.438;-73.814;2024-03-25T03:41:23;4.30;;;2.75;;
84956;SDS011;75252;45.438;-73.814;2024-03-25T03:43:49;4.03;;;3.13;;
84956;SDS011;75252;45.438;-73.814;2024-03-25T03:46:15;4.20;;;2.67;;
84956;SDS011;75252;45.438;-73.814;2024-03-25T03:48:41;4.05;;;2.67;;
84956;SDS011;75252;45.438;-73.814;2024-03-25T03:51:07;3.42;;;2.33;;
84956;SDS011;75252;45.438;-73.814;2024-03-25T03:53:34;4.60;;;3.30;;
84956;SDS011;75252;45.438;-73.814;2024-03-25T03:56:01;4.40;;;3.20;;
84956;SDS011;75252;45.438;-73.814;2024-03-25T03:58:33;4.07;;;2.92;;
84956;SDS011;75252;45.438;-73.814;2024-03-25T04:00:59;5.32;;;2.70;;
84956;SDS011;75252;45.438;-73.814;2024-03-25T04:03:26;3.90;;;2.78;;
84956;SDS011;75252;45.438;-73.814;2024-03-25T04:05:52;3.70;;;2.70;;
84956;SDS011;75252;45.438;-73.814;2024-03-25T04:08:18;6.40;;;3.53;;
84956;SDS011;75252;45.438;-73.814;2024-03-25T04:10:44;6.38;;;3.38;;
84956;SDS011;75252;45.438;-73.814;2024-03-25T04:13:11;8.43;;;3.90;;
84956;SDS011;75252;45.438;-73.814;2024-03-25T04:15:42;4.40;;;3.20;;
84956;SDS011;75252;45.438;-73.814;2024-03-25T04:18:09;7.90;;;4.07;;
84956;SDS011;75252;45.438;-73.814;2024-03-25T04:20:37;4.15;;;3.60;;
84956;SDS011;75252;45.438;-73.814;2024-03-25T04:23:03;5.80;;;3.20;;
84956;SDS011;75252;45.438;-73.814;2024-03-25T04:25:32;3.83;;;3.08;;
84956;SDS011;75252;45.438;-73.814;2024-03-25T04:27:59;7.38;;;3.50;;
84956;SDS011;75252;45.438;-73.814;2024-03-25T04:30:25;7.07;;;2.83;;
84956;SDS011;75252;45.438;-73.814;2024-03-25T04:32:51;4.93;;;2.67;;
84956;SDS011;75252;45.438;-73.814;2024-03-25T04:35:17;5.05;;;2.33;;
84956;SDS011;75252;45.438;-73.814;2024-03-25T04:37:44;3.42;;;2.10;;
84956;SDS011;75252;45.438;-73.814;2024-03-25T04:40:10;4.82;;;2.42;;
84956;SDS011;75252;45.438;-73.814;2024-03-25T04:42:39;2.65;;;2.13;;
84956;SDS011;75252;45.438;-73.814;2024-03-25T04:45:06;6.72;;;2.85;;
84956;SDS011;75252;45.438;-73.814;2024-03-25T04:47:32;4.40;;;2.70;;
84956;SDS011;75252;45.438;-73.814;2024-03-25T04:50:01;6.53;;;3.42;;
84956;SDS011;75252;45.438;-73.814;2024-03-25T04:52:28;3.33;;;2.15;;
84956;SDS011;75252;45.438;-73.814;2024-03-25T04:54:53;3.72;;;2.42;;
84956;SDS011;75252;45.438;-73.814;2024-03-25T04:57:19;2.45;;;2.08;;
84956;SDS011;75252;45.438;-73.814;2024-03-25T04:59:45;3.58;;;3.15;;
84956;SDS011;75252;45.438;-73.814;2024-03-25T05:02:12;3.63;;;2.78;;
84956;SDS011;75252;45.438;-73.814;2024-03-25T05:04:39;2.95;;;2.28;;
84956;SDS011;75252;45.438;-73.814;2024-03-25T05:07:05;3.50;;;2.45;;
84956;SDS011;75252;45.438;-73.814;2024-03-25T05:09:31;6.13;;;2.65;;
84956;SDS011;75252;45.438;-73.814;2024-03-25T05:11:57;3.85;;;2.40;;
84956;SDS011;75252;45.438;-73.814;2024-03-25T05:14:23;3.47;;;2.28;;
84956;SDS011;75252;45.438;-73.814;2024-03-25T05:16:48;3.78;;;2.38;;
84956;SDS011;75252;45.438;-73.814;2024-03-25T05:19:15;4.82;;;2.33;;
84956;SDS011;75252;45.438;-73.814;2024-03-25T05:21:41;3.88;;;2.42;;
84956;SDS011;75252;45.438;-73.814;2024-03-25T05:24:07;4.60;;;2.22;;
84956;SDS011;75252;45.438;-73.814;2024-03-25T05:26:33;3.65;;;2.30;;
84956;SDS011;75252;45.438;-73.814;2024-03-25T05:28:58;2.38;;;2.15;;
84956;SDS011;75252;45.438;-73.814;2024-03-25T05:31:24;4.35;;;2.92;;
84956;SDS011;75252;45.438;-73.814;2024-03-25T05:33:50;4.10;;;2.30;;
84956;SDS011;75252;45.438;-73.814;2024-03-25T05:36:16;3.15;;;2.28;;
84956;SDS011;75252;45.438;-73.814;2024-03-25T05:38:42;3.70;;;2.53;;
84956;SDS011;75252;45.438;-73.814;2024-03-25T05:41:09;5.20;;;2.40;;
84956;SDS011;75252;45.438;-73.814;2024-03-25T05:43:35;5.63;;;2.78;;
84956;SDS011;75252;45.438;-73.814;2024-03-25T05:46:01;3.55;;;2.30;;
84956;SDS011;75252;45.438;-73.814;2024-03-25T05:48:28;3.70;;;3.03;;
84956;SDS011;75252;45.438;-73.814;2024-03-25T05:51:05;4.10;;;2.42;;
84956;SDS011;75252;45.438;-73.814;2024-03-25T05:53:34;3.47;;;2.47;;
84956;SDS011;75252;45.438;-73.814;2024-03-25T05:56:00;4.43;;;2.97;;
84956;SDS011;75252;45.438;-73.814;2024-03-25T05:58:27;4.65;;;2.80;;
84956;SDS011;75252;45.438;-73.814;2024-03-25T06:00:53;3.40;;;2.50;;
84956;SDS011;75252;45.438;-73.814;2024-03-25T06:03:19;4.45;;;2.38;;
84956;SDS011;75252;45.438;-73.814;2024-03-25T06:05:46;4.03;;;2.85;;
84956;SDS011;75252;45.438;-73.814;2024-03-25T06:08:13;4.65;;;2.38;;
84956;SDS011;75252;45.438;-73.814;2024-03-25T06:10:51;3.45;;;2.55;;
84956;SDS011;75252;45.438;-73.814;2024-03-25T06:13:18;3.67;;;2.33;;
84956;SDS011;75252;45.438;-73.814;2024-03-25T06:15:45;3.42;;;2.67;;
84956;SDS011;75252;45.438;-73.814;2024-03-25T06:18:14;3.17;;;2.10;;
84956;SDS011;75252;45.438;-73.814;2024-03-25T06:20:39;3.45;;;2.47;;
84956;SDS011;75252;45.438;-73.814;2024-03-25T06:23:05;4.15;;;2.53;;
84956;SDS011;75252;45.438;-73.814;2024-03-25T06:25:32;5.03;;;3.22;;
84956;SDS011;75252;45.438;-73.814;2024-03-25T06:27:59;3.78;;;2.30;;
84956;SDS011;75252;45.438;-73.814;2024-03-25T06:30:24;4.85;;;2.50;;
84956;SDS011;75252;45.438;-73.814;2024-03-25T06:33:09;3.85;;;2.33;;
84956;SDS011;75252;45.438;-73.814;2024-03-25T06:35:53;7.10;;;2.80;;
84956;SDS011;75252;45.438;-73.814;2024-03-25T06:38:19;6.07;;;3.50;;
84956;SDS011;75252;45.438;-73.814;2024-03-25T06:40:45;4.15;;;2.50;;
84956;SDS011;75252;45.438;-73.814;2024-03-25T06:43:11;5.55;;;3.72;;
84956;SDS011;75252;45.438;-73.814;2024-03-25T06:45:37;3.53;;;2.47;;
84956;SDS011;75252;45.438;-73.814;2024-03-25T06:48:03;3.05;;;2.58;;
84956;SDS011;75252;45.438;-73.814;2024-03-25T06:50:30;3.25;;;2.20;;
84956;SDS011;75252;45.438;-73.814;2024-03-25T06:52:56;4.55;;;3.38;;
84956;SDS011;75252;45.438;-73.814;2024-03-25T06:55:21;5.00;;;3.25;;
84956;SDS011;75252;45.438;-73.814;2024-03-25T06:57:52;6.90;;;3.80;;
84956;SDS011;75252;45.438;-73.814;2024-03-25T07:00:18;4.10;;;2.65;;
84956;SDS011;75252;45.438;-73.814;2024-03-25T07:05:13;5.47;;;2.25;;
84956;SDS011;75252;45.438;-73.814;2024-03-25T07:07:39;4.78;;;2.47;;
84956;SDS011;75252;45.438;-73.814;2024-03-25T07:10:05;3.05;;;2.38;;
84956;SDS011;75252;45.438;-73.814;2024-03-25T07:12:32;6.45;;;2.45;;
84956;SDS011;75252;45.438;-73.814;2024-03-25T07:14:58;3.03;;;2.15;;
84956;SDS011;75252;45.438;-73.814;2024-03-25T07:17:23;3.28;;;2.78;;
84956;SDS011;75252;45.438;-73.814;2024-03-25T07:19:51;8.15;;;3.53;;
84956;SDS011;75252;45.438;-73.814;2024-03-25T07:22:17;4.35;;;2.40;;
84956;SDS011;75252;45.438;-73.814;2024-03-25T07:24:43;4.22;;;2.70;;
84956;SDS011;75252;45.438;-73.814;2024-03-25T07:27:10;3.67;;;2.47;;
84956;SDS011;75252;45.438;-73.814;2024-03-25T07:29:36;5.13;;;3.38;;
84956;SDS011;75252;45.438;-73.814;2024-03-25T07:32:03;3.90;;;2.78;;
84956;SDS011;75252;45.438;-73.814;2024-03-25T07:34:29;3.58;;;2.28;;
84956;SDS011;75252;45.438;-73.814;2024-03-25T07:36:55;3.85;;;3.20;;
84956;SDS011;75252;45.438;-73.814;2024-03-25T07:39:21;4.28;;;2.75;;
84956;SDS011;75252;45.438;-73.814;2024-03-25T07:41:49;3.75;;;2.50;;
84956;SDS011;75252;45.438;-73.814;2024-03-25T07:44:15;7.28;;;2.33;;
84956;SDS011;75252;45.438;-73.814;2024-03-25T07:46:41;3.97;;;2.72;;
84956;SDS011;75252;45.438;-73.814;2024-03-25T07:49:07;3.45;;;2.20;;
84956;SDS011;75252;45.438;-73.814;2024-03-25T07:51:33;6.13;;;2.40;;
84956;SDS011;75252;45.438;-73.814;2024-03-25T07:54:00;3.30;;;2.20;;
84956;SDS011;75252;45.438;-73.814;2024-03-25T07:56:28;4.38;;;2.35;;
84956;SDS011;75252;45.438;-73.814;2024-03-25T07:58:55;3.92;;;2.55;;
84956;SDS011;75252;45.438;-73.814;2024-03-25T08:01:21;3.58;;;2.55;;
84956;SDS011;75252;45.438;-73.814;2024-03-25T08:03:47;3.42;;;2.22;;
84956;SDS011;75252;45.438;-73.814;2024-03-25T08:06:13;2.75;;;2.47;;
84956;SDS011;75252;45.438;-73.814;2024-03-25T08:08:39;2.58;;;2.25;;
84956;SDS011;75252;45.438;-73.814;2024-03-25T08:11:04;3.88;;;2.75;;
84956;SDS011;75252;45.438;-73.814;2024-03-25T08:13:30;4.45;;;2.85;;
84956;SDS011;75252;45.438;-73.814;2024-03-25T08:15:56;5.05;;;2.40;;
84956;SDS011;75252;45.438;-73.814;2024-03-25T08:18:22;2.50;;;1.95;;
84956;SDS011;75252;45.438;-73.814;2024-03-25T08:20:48;3.00;;;1.92;;
84956;SDS011;75252;45.438;-73.814;2024-03-25T08:23:14;3.10;;;2.33;;
84956;SDS011;75252;45.438;-73.814;2024-03-25T08:25:39;4.07;;;3.13;;
84956;SDS011;75252;45.438;-73.814;2024-03-25T08:28:05;5.03;;;2.75;;
84956;SDS011;75252;45.438;-73.814;2024-03-25T08:30:31;4.10;;;2.95;;
84956;SDS011;75252;45.438;-73.814;2024-03-25T08:32:57;5.53;;;3.00;;
84956;SDS011;75252;45.438;-73.814;2024-03-25T08:35:23;4.47;;;2.88;;
84956;SDS011;75252;45.438;-73.814;2024-03-25T08:37:49;3.90;;;2.38;;
84956;SDS011;75252;45.438;-73.814;2024-03-25T08:40:14;5.70;;;2.58;;
84956;SDS011;75252;45.438;-73.814;2024-03-25T08:42:40;3.53;;;2.28;;
84956;SDS011;75252;45.438;-73.814;2024-03-25T08:45:06;5.03;;;2.30;;
84956;SDS011;75252;45.438;-73.814;2024-03-25T08:47:32;3.10;;;2.15;;
84956;SDS011;75252;45.438;-73.814;2024-03-25T08:49:58;3.53;;;2.05;;
84956;SDS011;75252;45.438;-73.814;2024-03-25T08:52:24;4.15;;;2.35;;
84956;SDS011;75252;45.438;-73.814;2024-03-25T08:54:50;4.93;;;2.42;;
84956;SDS011;75252;45.438;-73.814;2024-03-25T08:57:16;4.97;;;2.55;;
84956;SDS011;75252;45.438;-73.814;2024-03-25T08:59:41;5.07;;;2.63;;
84956;SDS011;75252;45.438;-73.814;2024-03-25T09:02:09;4.90;;;2.45;;
84956;SDS011;75252;45.438;-73.814;2024-03-25T09:04:35;3.75;;;2.45;;
84956;SDS011;75252;45.438;-73.814;2024-03-25T09:07:01;2.90;;;2.60;;
84956;SDS011;75252;45.438;-73.814;2024-03-25T09:09:28;4.95;;;2.65;;
84956;SDS011;75252;45.438;-73.814;2024-03-25T09:12:12;4.03;;;2.50;;
84956;SDS011;75252;45.438;-73.814;2024-03-25T09:14:38;3.92;;;2.50;;
84956;SDS011;75252;45.438;-73.814;2024-03-25T09:17:04;3.88;;;3.33;;
84956;SDS011;75252;45.438;-73.814;2024-03-25T09:19:30;5.95;;;2.80;;
84956;SDS011;75252;45.438;-73.814;2024-03-25T09:21:56;7.95;;;2.95;;
84956;SDS011;75252;45.438;-73.814;2024-03-25T09:24:21;6.88;;;3.15;;
84956;SDS011;75252;45.438;-73.814;2024-03-25T09:26:51;3.50;;;2.28;;
84956;SDS011;75252;45.438;-73.814;2024-03-25T09:29:17;2.67;;;2.42;;
84956;SDS011;75252;45.438;-73.814;2024-03-25T09:31:43;3.33;;;2.30;;
84956;SDS011;75252;45.438;-73.814;2024-03-25T09:34:09;5.30;;;2.53;;
84956;SDS011;75252;45.438;-73.814;2024-03-25T09:36:34;4.05;;;2.63;;
84956;SDS011;75252;45.438;-73.814;2024-03-25T09:39:00;3.97;;;2.97;;
84956;SDS011;75252;45.438;-73.814;2024-03-25T09:41:26;5.80;;;2.67;;
84956;SDS011;75252;45.438;-73.814;2024-03-25T09:43:56;3.97;;;2.88;;
84956;SDS011;75252;45.438;-73.814;2024-03-25T09:46:25;3.45;;;2.65;;
84956;SDS011;75252;45.438;-73.814;2024-03-25T09:48:52;7.05;;;2.72;;
84956;SDS011;75252;45.438;-73.814;2024-03-25T09:51:19;6.53;;;2.47;;
84956;SDS011;75252;45.438;-73.814;2024-03-25T09:53:45;4.07;;;2.30;;
84956;SDS011;75252;45.438;-73.814;2024-03-25T09:56:12;4.72;;;3.20;;
84956;SDS011;75252;45.438;-73.814;2024-03-25T09:58:38;5.95;;;3.10;;
84956;SDS011;75252;45.438;-73.814;2024-03-25T10:01:05;4.30;;;2.50;;
84956;SDS011;75252;45.438;-73.814;2024-03-25T10:03:31;4.68;;;3.03;;
84956;SDS011;75252;45.438;-73.814;2024-03-25T10:05:56;3.33;;;2.45;;
84956;SDS011;75252;45.438;-73.814;2024-03-25T10:08:22;5.43;;;3.17;;
84956;SDS011;75252;45.438;-73.814;2024-03-25T10:10:51;7.55;;;2.95;;
84956;SDS011;75252;45.438;-73.814;2024-03-25T10:13:17;5.88;;;3.13;;
84956;SDS011;75252;45.438;-73.814;2024-03-25T10:15:43;5.55;;;3.15;;
84956;SDS011;75252;45.438;-73.814;2024-03-25T10:18:11;5.10;;;3.50;;
84956;SDS011;75252;45.438;-73.814;2024-03-25T10:20:37;4.22;;;2.72;;
84956;SDS011;75252;45.438;-73.814;2024-03-25T10:23:03;4.90;;;3.10;;
84956;SDS011;75252;45.438;-73.814;2024-03-25T10:25:30;4.15;;;2.70;;
84956;SDS011;75252;45.438;-73.814;2024-03-25T10:27:57;4.03;;;2.58;;
84956;SDS011;75252;45.438;-73.814;2024-03-25T10:30:24;5.18;;;3.00;;
84956;SDS011;75252;45.438;-73.814;2024-03-25T10:33:03;4.65;;;3.00;;
84956;SDS011;75252;45.438;-73.814;2024-03-25T10:35:36;4.82;;;3.05;;
84956;SDS011;75252;45.438;-73.814;2024-03-25T10:38:04;4.35;;;3.08;;
84956;SDS011;75252;45.438;-73.814;2024-03-25T10:40:32;6.10;;;3.28;;
84956;SDS011;75252;45.438;-73.814;2024-03-25T10:43:03;3.97;;;2.50;;
84956;SDS011;75252;45.438;-73.814;2024-03-25T10:45:34;4.38;;;2.33;;
84956;SDS011;75252;45.438;-73.814;2024-03-25T10:48:03;7.35;;;3.17;;
84956;SDS011;75252;45.438;-73.814;2024-03-25T10:50:40;4.95;;;3.25;;
84956;SDS011;75252;45.438;-73.814;2024-03-25T10:53:10;6.05;;;2.90;;
84956;SDS011;75252;45.438;-73.814;2024-03-25T10:55:37;7.65;;;3.10;;
84956;SDS011;75252;45.438;-73.814;2024-03-25T10:58:07;3.88;;;2.72;;
84956;SDS011;75252;45.438;-73.814;2024-03-25T11:00:34;4.22;;;3.30;;
84956;SDS011;75252;45.438;-73.814;2024-03-25T11:03:01;3.15;;;2.85;;
84956;SDS011;75252;45.438;-73.814;2024-03-25T11:05:28;6.90;;;3.63;;
84956;SDS011;75252;45.438;-73.814;2024-03-25T11:07:54;4.88;;;3.47;;
84956;SDS011;75252;45.438;-73.814;2024-03-25T11:10:28;4.03;;;2.95;;
84956;SDS011;75252;45.438;-73.814;2024-03-25T11:12:54;4.22;;;3.83;;
84956;SDS011;75252;45.438;-73.814;2024-03-25T11:15:20;4.30;;;3.05;;
84956;SDS011;75252;45.438;-73.814;2024-03-25T11:17:50;4.88;;;3.20;;
84956;SDS011;75252;45.438;-73.814;2024-03-25T11:20:16;7.70;;;3.85;;
84956;SDS011;75252;45.438;-73.814;2024-03-25T11:22:48;7.43;;;2.97;;
84956;SDS011;75252;45.438;-73.814;2024-03-25T11:25:19;3.67;;;2.78;;
84956;SDS011;75252;45.438;-73.814;2024-03-25T11:27:46;6.22;;;3.28;;
84956;SDS011;75252;45.438;-73.814;2024-03-25T11:30:13;6.30;;;3.70;;
84956;SDS011;75252;45.438;-73.814;2024-03-25T11:32:51;5.88;;;2.85;;
84956;SDS011;75252;45.438;-73.814;2024-03-25T11:35:18;4.88;;;2.92;;
84956;SDS011;75252;45.438;-73.814;2024-03-25T11:37:44;7.88;;;3.35;;
84956;SDS011;75252;45.438;-73.814;2024-03-25T11:40:10;4.95;;;3.17;;
84956;SDS011;75252;45.438;-73.814;2024-03-25T11:42:39;6.47;;;3.30;;
84956;SDS011;75252;45.438;-73.814;2024-03-25T11:45:19;5.00;;;3.25;;
84956;SDS011;75252;45.438;-73.814;2024-03-25T11:47:46;5.93;;;3.80;;
84956;SDS011;75252;45.438;-73.814;2024-03-25T11:50:15;7.18;;;3.70;;
84956;SDS011;75252;45.438;-73.814;2024-03-25T11:52:42;6.03;;;3.30;;
84956;SDS011;75252;45.438;-73.814;2024-03-25T11:55:09;4.07;;;2.95;;
84956;SDS011;75252;45.438;-73.814;2024-03-25T11:57:39;6.55;;;3.50;;
84956;SDS011;75252;45.438;-73.814;2024-03-25T12:00:07;8.23;;;3.78;;
84956;SDS011;75252;45.438;-73.814;2024-03-25T12:02:38;7.95;;;3.42;;
84956;SDS011;75252;45.438;-73.814;2024-03-25T12:05:08;7.07;;;3.67;;
84956;SDS011;75252;45.438;-73.814;2024-03-25T12:07:37;6.85;;;3.15;;
84956;SDS011;75252;45.438;-73.814;2024-03-25T12:10:03;6.05;;;3.67;;
84956;SDS011;75252;45.438;-73.814;2024-03-25T12:12:48;11.05;;;3.92;;
84956;SDS011;75252;45.438;-73.814;2024-03-25T12:15:16;10.52;;;3.65;;
84956;SDS011;75252;45.438;-73.814;2024-03-25T12:17:42;7.88;;;3.45;;
84956;SDS011;75252;45.438;-73.814;2024-03-25T12:20:09;7.95;;;3.28;;
84956;SDS011;75252;45.438;-73.814;2024-03-25T12:22:38;7.35;;;3.22;;
84956;SDS011;75252;45.438;-73.814;2024-03-25T12:25:05;7.88;;;3.67;;
84956;SDS011;75252;45.438;-73.814;2024-03-25T12:27:33;7.18;;;4.07;;
84956;SDS011;75252;45.438;-73.814;2024-03-25T12:30:05;7.13;;;3.67;;
84956;SDS011;75252;45.438;-73.814;2024-03-25T12:35:11;5.75;;;4.03;;
84956;SDS011;75252;45.438;-73.814;2024-03-25T12:37:40;14.57;;;3.80;;
84956;SDS011;75252;45.438;-73.814;2024-03-25T12:40:07;14.00;;;3.85;;
84956;SDS011;75252;45.438;-73.814;2024-03-25T12:42:36;12.25;;;3.92;;
84956;SDS011;75252;45.438;-73.814;2024-03-25T12:45:03;8.07;;;3.10;;
84956;SDS011;75252;45.438;-73.814;2024-03-25T12:47:29;14.48;;;3.65;;
84956;SDS011;75252;45.438;-73.814;2024-03-25T12:49:56;7.47;;;3.53;;
84956;SDS011;75252;45.438;-73.814;2024-03-25T12:52:23;11.70;;;4.20;;
84956;SDS011;75252;45.438;-73.814;2024-03-25T12:54:48;8.32;;;3.63;;
84956;SDS011;75252;45.438;-73.814;2024-03-25T12:57:15;7.45;;;3.25;;
84956;SDS011;75252;45.438;-73.814;2024-03-25T12:59:41;4.43;;;2.58;;
84956;SDS011;75252;45.438;-73.814;2024-03-25T13:02:10;4.70;;;2.58;;
84956;SDS011;75252;45.438;-73.814;2024-03-25T13:04:37;3.35;;;2.58;;
84956;SDS011;75252;45.438;-73.814;2024-03-25T13:07:03;5.30;;;3.30;;
84956;SDS011;75252;45.438;-73.814;2024-03-25T13:09:29;4.20;;;2.10;;
84956;SDS011;75252;45.438;-73.814;2024-03-25T13:11:58;7.15;;;2.78;;
84956;SDS011;75252;45.438;-73.814;2024-03-25T13:14:25;5.43;;;2.70;;
84956;SDS011;75252;45.438;-73.814;2024-03-25T13:16:51;4.75;;;2.47;;
84956;SDS011;75252;45.438;-73.814;2024-03-25T13:19:17;2.83;;;2.20;;
84956;SDS011;75252;45.438;-73.814;2024-03-25T13:21:42;2.25;;;1.67;;
84956;SDS011;75252;45.438;-73.814;2024-03-25T13:24:09;4.97;;;2.30;;
84956;SDS011;75252;45.438;-73.814;2024-03-25T13:26:35;12.40;;;3.13;;
84956;SDS011;75252;45.438;-73.814;2024-03-25T13:29:01;4.32;;;2.60;;
84956;SDS011;75252;45.438;-73.814;2024-03-25T13:31:27;3.38;;;2.80;;
84956;SDS011;75252;45.438;-73.814;2024-03-25T13:33:53;4.10;;;2.25;;
84956;SDS011;75252;45.438;-73.814;2024-03-25T13:36:19;3.28;;;2.28;;
84956;SDS011;75252;45.438;-73.814;2024-03-25T13:38:45;3.72;;;2.17;;
84956;SDS011;75252;45.438;-73.814;2024-03-25T13:41:14;6.53;;;2.30;;
84956;SDS011;75252;45.438;-73.814;2024-03-25T13:43:43;5.47;;;2.42;;
84956;SDS011;75252;45.438;-73.814;2024-03-25T13:46:09;5.07;;;2.13;;
84956;SDS011;75252;45.438;-73.814;2024-03-25T13:51:03;3.33;;;2.42;;
84956;SDS011;75252;45.438;-73.814;2024-03-25T13:53:29;5.20;;;2.45;;
84956;SDS011;75252;45.438;-73.814;2024-03-25T13:55:55;6.88;;;2.13;;
84956;SDS011;75252;45.438;-73.814;2024-03-25T13:58:21;8.65;;;3.20;;
84956;SDS011;75252;45.438;-73.814;2024-03-25T14:00:47;3.42;;;2.28;;
84956;SDS011;75252;45.438;-73.814;2024-03-25T14:03:13;4.60;;;2.20;;
84956;SDS011;75252;45.438;-73.814;2024-03-25T14:05:41;11.50;;;2.50;;
84956;SDS011;75252;45.438;-73.814;2024-03-25T14:08:07;7.55;;;2.30;;
84956;SDS011;75252;45.438;-73.814;2024-03-25T14:10:34;4.63;;;2.30;;
84956;SDS011;75252;45.438;-73.814;2024-03-25T14:13:00;5.40;;;2.63;;
84956;SDS011;75252;45.438;-73.814;2024-03-25T14:15:27;6.53;;;2.50;;
84956;SDS011;75252;45.438;-73.814;2024-03-25T14:17:52;7.43;;;2.67;;
84956;SDS011;75252;45.438;-73.814;2024-03-25T14:20:18;7.05;;;2.95;;
84956;SDS011;75252;45.438;-73.814;2024-03-25T14:22:44;6.57;;;2.60;;
84956;SDS011;75252;45.438;-73.814;2024-03-25T14:25:10;4.03;;;3.08;;
84956;SDS011;75252;45.438;-73.814;2024-03-25T14:27:36;6.50;;;3.08;;